sensor_id;sensor_type;location;lat;lon;timestamp;pressure;altitude;pressure_sealevel;temperature;humidity
43161;BME280;40968;52.342;5.528;2024-01-25T00:00:25;102750.19;;;7.50;75.03
43161;BME280;40968;52.342;5.528;2024-01-25T00:02:52;102679.94;;;7.21;75.20
43161;BME280;40968;52.342;5.528;2024-01-25T00:05:19;102672.28;;;7.10;75.36
43161;BME280;40968;52.342;5.528;2024-01-25T00:07:46;102663.59;;;7.04;75.66
43161;BME280;40968;52.342;5.528;2024-01-25T00:10:13;102579.63;;;6.60;75.55
43161;BME280;40968;52.342;5.528;2024-01-25T00:12:40;102719.50;;;7.37;75.79
43161;BME280;40968;52.342;5.528;2024-01-25T00:15:07;102663.78;;;6.97;76.01
43161;BME280;40968;52.342;5.528;2024-01-25T00:17:33;102521.53;;;6.12;76.02
43161;BME280;40968;52.342;5.528;2024-01-25T00:20:00;102724.00;;;7.35;76.30
43161;BME280;40968;52.342;5.528;2024-01-25T00:22:28;102511.28;;;5.96;76.30
43161;BME280;40968;52.342;5.528;2024-01-25T00:24:55;102672.88;;;6.90;76.47
43161;BME280;40968;52.342;5.528;2024-01-25T00:27:21;102715.81;;;7.11;76.77
43161;BME280;40968;52.342;5.528;2024-01-25T00:29:48;102758.94;;;7.25;76.91
43161;BME280;40968;52.342;5.528;2024-01-25T00:32:14;102634.72;;;6.58;76.87
43161;BME280;40968;52.342;5.528;2024-01-25T00:34:41;102699.19;;;7.03;76.94
43161;BME280;40968;52.342;5.528;2024-01-25T00:37:09;102744.81;;;7.22;77.10
43161;BME280;40968;52.342;5.528;2024-01-25T00:39:37;102724.47;;;7.19;77.24
43161;BME280;40968;52.342;5.528;2024-01-25T00:42:05;102664.22;;;6.82;77.35
43161;BME280;40968;52.342;5.528;2024-01-25T00:44:33;102738.84;;;7.13;77.34
43161;BME280;40968;52.342;5.528;2024-01-25T00:47:00;102750.47;;;7.11;77.52
43161;BME280;40968;52.342;5.528;2024-01-25T00:49:27;102685.72;;;6.76;77.63
43161;BME280;40968;52.342;5.528;2024-01-25T00:51:58;102725.00;;;7.01;77.73
43161;BME280;40968;52.342;5.528;2024-01-25T00:54:26;102720.78;;;6.93;77.66
43161;BME280;40968;52.342;5.528;2024-01-25T00:56:54;102709.53;;;6.82;77.79
43161;BME280;40968;52.342;5.528;2024-01-25T00:59:21;102522.56;;;5.73;77.59
43161;BME280;40968;52.342;5.528;2024-01-25T01:01:48;102420.59;;;5.07;77.84
43161;BME280;40968;52.342;5.528;2024-01-25T01:04:18;102637.97;;;6.38;78.03
43161;BME280;40968;52.342;5.528;2024-01-25T01:06:45;102502.63;;;5.55;77.93
43161;BME280;40968;52.342;5.528;2024-01-25T01:09:13;102492.19;;;5.49;78.02
43161;BME280;40968;52.342;5.528;2024-01-25T01:11:39;102651.31;;;6.37;78.05
43161;BME280;40968;52.342;5.528;2024-01-25T01:14:07;102755.44;;;6.93;78.30
43161;BME280;40968;52.342;5.528;2024-01-25T01:16:34;102747.44;;;6.93;78.37
43161;BME280;40968;52.342;5.528;2024-01-25T01:19:01;102755.47;;;6.92;78.42
43161;BME280;40968;52.342;5.528;2024-01-25T01:21:32;102700.56;;;6.53;78.33
43161;BME280;40968;52.342;5.528;2024-01-25T01:23:58;102729.56;;;6.66;78.36
43161;BME280;40968;52.342;5.528;2024-01-25T01:26:25;102577.38;;;5.80;78.31
43161;BME280;40968;52.342;5.528;2024-01-25T01:28:51;102691.84;;;6.48;78.57
43161;BME280;40968;52.342;5.528;2024-01-25T01:31:19;102751.28;;;6.83;78.72
43161;BME280;40968;52.342;5.528;2024-01-25T01:33:48;102752.22;;;6.80;78.86
43161;BME280;40968;52.342;5.528;2024-01-25T01:36:14;102756.69;;;6.80;78.95
43161;BME280;40968;52.342;5.528;2024-01-25T01:38:41;102666.81;;;6.22;79.09
43161;BME280;40968;52.342;5.528;2024-01-25T01:41:09;102624.88;;;5.94;79.17
43161;BME280;40968;52.342;5.528;2024-01-25T01:43:36;102763.91;;;6.76;79.33
43161;BME280;40968;52.342;5.528;2024-01-25T01:46:05;102475.59;;;5.05;79.35
43161;BME280;40968;52.342;5.528;2024-01-25T01:48:34;102709.81;;;6.40;79.46
43161;BME280;40968;52.342;5.528;2024-01-25T01:51:01;102606.69;;;5.77;79.63
43161;BME280;40968;52.342;5.528;2024-01-25T01:53:27;102530.59;;;5.37;79.42
43161;BME280;40968;52.342;5.528;2024-01-25T01:55:54;102754.50;;;6.63;79.69
43161;BME280;40968;52.342;5.528;2024-01-25T01:58:22;102362.34;;;4.27;79.74
43161;BME280;40968;52.342;5.528;2024-01-25T02:00:50;102783.75;;;6.64;79.94
43161;BME280;40968;52.342;5.528;2024-01-25T02:03:17;102747.19;;;6.37;79.90
43161;BME280;40968;52.342;5.528;2024-01-25T02:05:45;102796.28;;;6.61;80.08
43161;BME280;40968;52.342;5.528;2024-01-25T02:08:12;102755.34;;;6.30;80.35
43161;BME280;40968;52.342;5.528;2024-01-25T02:10:38;102797.34;;;6.55;80.29
43161;BME280;40968;52.342;5.528;2024-01-25T02:13:05;102720.44;;;6.07;80.37
43161;BME280;40968;52.342;5.528;2024-01-25T02:15:31;102637.47;;;5.53;80.34
43161;BME280;40968;52.342;5.528;2024-01-25T02:17:58;102809.84;;;6.52;80.62
43161;BME280;40968;52.342;5.528;2024-01-25T02:20:25;102757.44;;;6.18;80.61
43161;BME280;40968;52.342;5.528;2024-01-25T02:22:53;102818.78;;;6.49;80.77
43161;BME280;40968;52.342;5.528;2024-01-25T02:25:19;102776.84;;;6.23;80.74
43161;BME280;40968;52.342;5.528;2024-01-25T02:27:46;102805.78;;;6.37;80.82
43161;BME280;40968;52.342;5.528;2024-01-25T02:30:12;102553.91;;;4.88;80.79
43161;BME280;40968;52.342;5.528;2024-01-25T02:32:39;102813.66;;;6.41;81.09
43161;BME280;40968;52.342;5.528;2024-01-25T02:35:06;102676.47;;;5.54;80.90
43161;BME280;40968;52.342;5.528;2024-01-25T02:37:33;102680.84;;;5.55;80.99
43161;BME280;40968;52.342;5.528;2024-01-25T02:40:01;102822.59;;;6.39;81.17
43161;BME280;40968;52.342;5.528;2024-01-25T02:42:28;102783.56;;;6.02;81.14
43161;BME280;40968;52.342;5.528;2024-01-25T02:44:55;102793.09;;;6.10;81.16
43161;BME280;40968;52.342;5.528;2024-01-25T02:47:22;102841.31;;;6.36;80.85
43161;BME280;40968;52.342;5.528;2024-01-25T02:49:48;102841.38;;;6.33;81.05
43161;BME280;40968;52.342;5.528;2024-01-25T02:52:15;102815.03;;;6.22;81.25
43161;BME280;40968;52.342;5.528;2024-01-25T02:54:41;102832.56;;;6.30;81.28
43161;BME280;40968;52.342;5.528;2024-01-25T02:57:10;102834.38;;;6.28;81.39
43161;BME280;40968;52.342;5.528;2024-01-25T02:59:36;102819.66;;;6.13;81.43
43161;BME280;40968;52.342;5.528;2024-01-25T03:02:03;102780.31;;;5.87;81.45
43161;BME280;40968;52.342;5.528;2024-01-25T03:04:30;102668.41;;;5.18;81.50
43161;BME280;40968;52.342;5.528;2024-01-25T03:06:56;102841.69;;;6.20;81.70
43161;BME280;40968;52.342;5.528;2024-01-25T03:09:23;102843.44;;;6.21;81.72
43161;BME280;40968;52.342;5.528;2024-01-25T03:11:49;102843.50;;;6.20;81.76
43161;BME280;40968;52.342;5.528;2024-01-25T03:14:17;102771.78;;;5.73;81.61
43161;BME280;40968;52.342;5.528;2024-01-25T03:16:44;102800.53;;;5.94;81.69
43161;BME280;40968;52.342;5.528;2024-01-25T03:19:10;102600.25;;;4.75;81.66
43161;BME280;40968;52.342;5.528;2024-01-25T03:21:37;102785.78;;;5.81;81.83
43161;BME280;40968;52.342;5.528;2024-01-25T03:24:04;102716.88;;;5.31;81.95
43161;BME280;40968;52.342;5.528;2024-01-25T03:26:31;102843.63;;;6.13;81.98
43161;BME280;40968;52.342;5.528;2024-01-25T03:28:57;102728.09;;;5.44;81.85
43161;BME280;40968;52.342;5.528;2024-01-25T03:31:25;102581.22;;;4.54;81.99
43161;BME280;40968;52.342;5.528;2024-01-25T03:33:52;102815.63;;;5.95;82.21
43161;BME280;40968;52.342;5.528;2024-01-25T03:36:18;102825.13;;;6.07;82.13
43161;BME280;40968;52.342;5.528;2024-01-25T03:38:45;102629.94;;;4.95;82.09
43161;BME280;40968;52.342;5.528;2024-01-25T03:41:11;102695.59;;;5.31;82.10
43161;BME280;40968;52.342;5.528;2024-01-25T03:43:38;102809.63;;;5.86;82.19
43161;BME280;40968;52.342;5.528;2024-01-25T03:46:04;102605.78;;;4.65;82.30
43161;BME280;40968;52.342;5.528;2024-01-25T03:48:32;102666.97;;;5.02;82.35
43161;BME280;40968;52.342;5.528;2024-01-25T03:50:59;102773.81;;;5.61;82.26
43161;BME280;40968;52.342;5.528;2024-01-25T03:53:26;102730.13;;;5.32;82.14
43161;BME280;40968;52.342;5.528;2024-01-25T03:55:52;102838.72;;;5.93;82.58
43161;BME280;40968;52.342;5.528;2024-01-25T03:58:19;102840.50;;;5.93;82.60
43161;BME280;40968;52.342;5.528;2024-01-25T04:00:45;102763.53;;;5.44;82.49
43161;BME280;40968;52.342;5.528;2024-01-25T04:03:12;102779.03;;;5.66;82.73
43161;BME280;40968;52.342;5.528;2024-01-25T04:05:40;102825.47;;;5.90;82.60
43161;BME280;40968;52.342;5.528;2024-01-25T04:08:06;102764.31;;;5.50;82.44
43161;BME280;40968;52.342;5.528;2024-01-25T04:10:33;102603.34;;;4.53;82.43
43161;BME280;40968;52.342;5.528;2024-01-25T04:13:00;102833.59;;;5.84;82.58
43161;BME280;40968;52.342;5.528;2024-01-25T04:15:27;102709.34;;;5.11;82.55
43161;BME280;40968;52.342;5.528;2024-01-25T04:17:54;102565.00;;;4.24;82.50
43161;BME280;40968;52.342;5.528;2024-01-25T04:20:21;102775.03;;;5.45;82.68
43161;BME280;40968;52.342;5.528;2024-01-25T04:22:49;102819.72;;;5.71;82.59
43161;BME280;40968;52.342;5.528;2024-01-25T04:25:15;102665.72;;;4.77;82.57
43161;BME280;40968;52.342;5.528;2024-01-25T04:27:42;102638.69;;;4.57;82.36
43161;BME280;40968;52.342;5.528;2024-01-25T04:30:09;102832.28;;;5.63;82.50
43161;BME280;40968;52.342;5.528;2024-01-25T04:32:36;102850.13;;;5.59;82.44
43161;BME280;40968;52.342;5.528;2024-01-25T04:35:01;102787.00;;;5.25;82.40
43161;BME280;40968;52.342;5.528;2024-01-25T04:37:28;102833.47;;;5.50;82.56
43161;BME280;40968;52.342;5.528;2024-01-25T04:39:56;102655.81;;;4.42;82.34
43161;BME280;40968;52.342;5.528;2024-01-25T04:42:22;102542.13;;;3.72;82.31
43161;BME280;40968;52.342;5.528;2024-01-25T04:44:49;102807.47;;;5.22;82.60
43161;BME280;40968;52.342;5.528;2024-01-25T04:47:15;102690.22;;;4.46;82.41
43161;BME280;40968;52.342;5.528;2024-01-25T04:49:42;102611.56;;;3.95;82.49
43161;BME280;40968;52.342;5.528;2024-01-25T04:52:08;102773.47;;;4.92;82.71
43161;BME280;40968;52.342;5.528;2024-01-25T04:54:35;102832.22;;;5.25;82.97
43161;BME280;40968;52.342;5.528;2024-01-25T04:57:03;102836.75;;;5.20;82.94
43161;BME280;40968;52.342;5.528;2024-01-25T04:59:31;102564.56;;;3.52;82.59
43161;BME280;40968;52.342;5.528;2024-01-25T05:01:58;102842.16;;;5.14;82.96
43161;BME280;40968;52.342;5.528;2024-01-25T05:04:25;102834.31;;;5.08;83.02
43161;BME280;40968;52.342;5.528;2024-01-25T05:06:51;102847.59;;;5.08;83.15
43161;BME280;40968;52.342;5.528;2024-01-25T05:09:18;102768.78;;;4.58;83.22
43161;BME280;40968;52.342;5.528;2024-01-25T05:11:44;102638.50;;;3.71;83.10
43161;BME280;40968;52.342;5.528;2024-01-25T05:14:12;102850.53;;;4.94;83.44
43161;BME280;40968;52.342;5.528;2024-01-25T05:16:39;102769.09;;;4.41;83.56
43161;BME280;40968;52.342;5.528;2024-01-25T05:19:05;102851.47;;;4.91;83.50
43161;BME280;40968;52.342;5.528;2024-01-25T05:21:32;102791.91;;;4.53;83.61
43161;BME280;40968;52.342;5.528;2024-01-25T05:23:59;102854.19;;;4.87;83.81
43161;BME280;40968;52.342;5.528;2024-01-25T05:26:26;102865.75;;;4.84;83.88
43161;BME280;40968;52.342;5.528;2024-01-25T05:28:52;102604.66;;;3.32;83.84
43161;BME280;40968;52.342;5.528;2024-01-25T05:31:20;102401.75;;;2.06;83.45
43161;BME280;40968;52.342;5.528;2024-01-25T05:33:46;102868.53;;;4.76;84.01
43161;BME280;40968;52.342;5.528;2024-01-25T05:36:13;102799.38;;;4.29;84.08
43161;BME280;40968;52.342;5.528;2024-01-25T05:38:40;102815.16;;;4.39;84.04
43161;BME280;40968;52.342;5.528;2024-01-25T05:41:06;102875.78;;;4.68;84.27
43161;BME280;40968;52.342;5.528;2024-01-25T05:43:33;102879.34;;;4.65;84.24
43161;BME280;40968;52.342;5.528;2024-01-25T05:46:00;102881.16;;;4.63;84.33
43161;BME280;40968;52.342;5.528;2024-01-25T05:48:28;102876.75;;;4.62;84.43
43161;BME280;40968;52.342;5.528;2024-01-25T05:50:54;102613.03;;;3.04;84.31
43161;BME280;40968;52.342;5.528;2024-01-25T05:53:21;102874.19;;;4.56;84.47
43161;BME280;40968;52.342;5.528;2024-01-25T05:55:47;102873.34;;;4.54;84.66
43161;BME280;40968;52.342;5.528;2024-01-25T05:58:14;102877.81;;;4.52;84.51
43161;BME280;40968;52.342;5.528;2024-01-25T06:00:42;102878.72;;;4.48;84.63
43161;BME280;40968;52.342;5.528;2024-01-25T06:03:08;102783.25;;;3.87;84.64
43161;BME280;40968;52.342;5.528;2024-01-25T06:05:36;102884.16;;;4.42;84.69
43161;BME280;40968;52.342;5.528;2024-01-25T06:08:03;102861.41;;;4.25;85.08
43161;BME280;40968;52.342;5.528;2024-01-25T06:10:30;102786.03;;;3.78;85.57
43161;BME280;40968;52.342;5.528;2024-01-25T06:12:56;102624.84;;;2.80;85.05
43161;BME280;40968;52.342;5.528;2024-01-25T06:15:23;102660.88;;;2.92;85.16
43161;BME280;40968;52.342;5.528;2024-01-25T06:17:49;102887.84;;;4.31;85.22
43161;BME280;40968;52.342;5.528;2024-01-25T06:20:16;102857.25;;;4.06;85.06
43161;BME280;40968;52.342;5.528;2024-01-25T06:22:44;102847.69;;;3.95;85.22
43161;BME280;40968;52.342;5.528;2024-01-25T06:25:10;102870.53;;;4.06;85.13
43161;BME280;40968;52.342;5.528;2024-01-25T06:27:38;102847.59;;;4.02;85.40
43161;BME280;40968;52.342;5.528;2024-01-25T06:30:06;102569.81;;;2.35;85.41
43161;BME280;40968;52.342;5.528;2024-01-25T06:32:32;102710.88;;;3.18;85.74
43161;BME280;40968;52.342;5.528;2024-01-25T06:34:59;102831.06;;;3.84;86.01
43161;BME280;40968;52.342;5.528;2024-01-25T06:37:26;102902.16;;;4.21;86.18
43161;BME280;40968;52.342;5.528;2024-01-25T06:39:53;102901.28;;;4.19;86.32
43161;BME280;40968;52.342;5.528;2024-01-25T06:42:20;102633.06;;;2.58;86.47
43161;BME280;40968;52.342;5.528;2024-01-25T06:44:47;102798.81;;;3.51;86.65
43161;BME280;40968;52.342;5.528;2024-01-25T06:47:15;102764.56;;;3.34;86.86
43161;BME280;40968;52.342;5.528;2024-01-25T06:49:42;102896.06;;;4.14;86.95
43161;BME280;40968;52.342;5.528;2024-01-25T06:52:08;102825.06;;;3.70;87.04
43161;BME280;40968;52.342;5.528;2024-01-25T06:54:35;102645.31;;;2.65;86.94
43161;BME280;40968;52.342;5.528;2024-01-25T06:57:03;102841.78;;;3.76;87.10
43161;BME280;40968;52.342;5.528;2024-01-25T06:59:30;102670.84;;;2.70;87.11
43161;BME280;40968;52.342;5.528;2024-01-25T07:01:57;102740.09;;;3.10;87.24
43161;BME280;40968;52.342;5.528;2024-01-25T07:04:23;102916.44;;;4.14;87.37
43161;BME280;40968;52.342;5.528;2024-01-25T07:06:50;102912.03;;;4.13;87.40
43161;BME280;40968;52.342;5.528;2024-01-25T07:09:17;102748.75;;;3.25;87.45
43161;BME280;40968;52.342;5.528;2024-01-25T07:11:43;102842.69;;;3.74;87.44
43161;BME280;40968;52.342;5.528;2024-01-25T07:14:11;102912.91;;;4.12;87.59
43161;BME280;40968;52.342;5.528;2024-01-25T07:16:38;102691.91;;;2.82;87.60
43161;BME280;40968;52.342;5.528;2024-01-25T07:19:04;102786.59;;;3.38;87.64
43161;BME280;40968;52.342;5.528;2024-01-25T07:21:31;102908.56;;;4.08;87.83
43161;BME280;40968;52.342;5.528;2024-01-25T07:23:59;102906.81;;;4.05;88.01
43161;BME280;40968;52.342;5.528;2024-01-25T07:26:26;102748.06;;;3.09;87.93
43161;BME280;40968;52.342;5.528;2024-01-25T07:28:52;102658.75;;;2.48;88.24
43161;BME280;40968;52.342;5.528;2024-01-25T07:31:24;102880.53;;;3.85;88.41
43161;BME280;40968;52.342;5.528;2024-01-25T07:33:51;102867.38;;;3.79;88.26
43161;BME280;40968;52.342;5.528;2024-01-25T07:36:18;102882.38;;;3.81;88.38
43161;BME280;40968;52.342;5.528;2024-01-25T07:38:44;102925.41;;;4.04;88.33
43161;BME280;40968;52.342;5.528;2024-01-25T07:41:12;102826.25;;;3.45;88.31
43161;BME280;40968;52.342;5.528;2024-01-25T07:43:38;102859.56;;;3.67;88.50
43161;BME280;40968;52.342;5.528;2024-01-25T07:46:05;102658.72;;;2.50;88.42
43161;BME280;40968;52.342;5.528;2024-01-25T07:48:33;102894.50;;;3.98;88.73
43161;BME280;40968;52.342;5.528;2024-01-25T07:51:00;102757.88;;;3.02;88.78
43161;BME280;40968;52.342;5.528;2024-01-25T07:53:27;102696.34;;;2.80;88.82
43161;BME280;40968;52.342;5.528;2024-01-25T07:55:53;102678.03;;;2.61;89.26
43161;BME280;40968;52.342;5.528;2024-01-25T07:58:20;102735.88;;;2.95;89.12
43161;BME280;40968;52.342;5.528;2024-01-25T08:00:46;102722.72;;;2.88;89.21
43161;BME280;40968;52.342;5.528;2024-01-25T08:03:14;102833.97;;;3.64;89.41
43161;BME280;40968;52.342;5.528;2024-01-25T08:05:44;102727.03;;;2.98;89.40
43161;BME280;40968;52.342;5.528;2024-01-25T08:08:11;102870.88;;;3.83;89.53
43161;BME280;40968;52.342;5.528;2024-01-25T08:10:37;102911.22;;;4.05;89.75
43161;BME280;40968;52.342;5.528;2024-01-25T08:13:06;102913.00;;;4.06;89.81
43161;BME280;40968;52.342;5.528;2024-01-25T08:15:33;102921.84;;;4.05;89.62
43161;BME280;40968;52.342;5.528;2024-01-25T08:18:00;102918.31;;;4.04;89.53
43161;BME280;40968;52.342;5.528;2024-01-25T08:20:27;102668.41;;;2.53;89.33
43161;BME280;40968;52.342;5.528;2024-01-25T08:22:55;102871.03;;;3.69;89.82
43161;BME280;40968;52.342;5.528;2024-01-25T08:25:22;102873.63;;;3.75;90.09
43161;BME280;40968;52.342;5.528;2024-01-25T08:27:49;102920.19;;;3.97;89.87
43161;BME280;40968;52.342;5.528;2024-01-25T08:30:15;102916.47;;;4.11;90.07
43161;BME280;40968;52.342;5.528;2024-01-25T08:32:42;102594.78;;;2.09;89.97
43161;BME280;40968;52.342;5.528;2024-01-25T08:35:08;102909.38;;;4.13;90.17
43161;BME280;40968;52.342;5.528;2024-01-25T08:37:35;102817.25;;;3.57;90.33
43161;BME280;40968;52.342;5.528;2024-01-25T08:40:05;102869.03;;;3.86;90.29
43161;BME280;40968;52.342;5.528;2024-01-25T08:42:32;102887.50;;;3.94;90.40
43161;BME280;40968;52.342;5.528;2024-01-25T08:44:59;102923.44;;;4.18;90.54
43161;BME280;40968;52.342;5.528;2024-01-25T08:47:25;102915.47;;;4.20;90.64
43161;BME280;40968;52.342;5.528;2024-01-25T08:49:52;102861.97;;;3.85;90.71
43161;BME280;40968;52.342;5.528;2024-01-25T08:52:18;102791.91;;;3.36;90.72
43161;BME280;40968;52.342;5.528;2024-01-25T08:54:45;102671.78;;;2.65;90.81
43161;BME280;40968;52.342;5.528;2024-01-25T08:57:13;102948.97;;;4.27;91.14
43161;BME280;40968;52.342;5.528;2024-01-25T08:59:40;102843.75;;;3.60;91.20
43161;BME280;40968;52.342;5.528;2024-01-25T09:02:07;102958.66;;;4.29;91.37
43161;BME280;40968;52.342;5.528;2024-01-25T09:04:34;102864.78;;;3.74;91.46
43161;BME280;40968;52.342;5.528;2024-01-25T09:07:00;102716.47;;;2.93;91.40
43161;BME280;40968;52.342;5.528;2024-01-25T09:09:27;102678.72;;;2.77;91.44
43161;BME280;40968;52.342;5.528;2024-01-25T09:11:54;102951.50;;;4.38;91.77
43161;BME280;40968;52.342;5.528;2024-01-25T09:14:22;102792.78;;;3.37;91.64
43161;BME280;40968;52.342;5.528;2024-01-25T09:16:49;102883.78;;;4.07;91.70
43161;BME280;40968;52.342;5.528;2024-01-25T09:19:15;102935.44;;;4.44;91.70
43161;BME280;40968;52.342;5.528;2024-01-25T09:21:42;102879.22;;;4.17;91.86
43161;BME280;40968;52.342;5.528;2024-01-25T09:24:09;102869.72;;;4.01;91.98
43161;BME280;40968;52.342;5.528;2024-01-25T09:26:35;102894.28;;;4.15;92.16
43161;BME280;40968;52.342;5.528;2024-01-25T09:29:02;102941.47;;;4.55;92.30
43161;BME280;40968;52.342;5.528;2024-01-25T09:31:31;102944.09;;;4.60;92.42
43161;BME280;40968;52.342;5.528;2024-01-25T09:33:58;102937.84;;;4.62;92.46
43161;BME280;40968;52.342;5.528;2024-01-25T09:36:24;102949.25;;;4.68;92.48
43161;BME280;40968;52.342;5.528;2024-01-25T09:38:51;102887.81;;;4.35;92.47
43161;BME280;40968;52.342;5.528;2024-01-25T09:41:17;102893.91;;;4.40;92.64
43161;BME280;40968;52.342;5.528;2024-01-25T09:43:45;102723.84;;;3.40;92.41
43161;BME280;40968;52.342;5.528;2024-01-25T09:46:13;102693.91;;;3.30;92.34
43161;BME280;40968;52.342;5.528;2024-01-25T09:48:42;102838.69;;;4.06;92.49
43161;BME280;40968;52.342;5.528;2024-01-25T09:51:11;102826.44;;;3.98;92.42
43161;BME280;40968;52.342;5.528;2024-01-25T09:53:39;102863.00;;;4.36;92.55
43161;BME280;40968;52.342;5.528;2024-01-25T09:56:07;102713.97;;;3.51;92.37
43161;BME280;40968;52.342;5.528;2024-01-25T09:58:38;102899.72;;;4.63;92.36
43161;BME280;40968;52.342;5.528;2024-01-25T10:01:08;102928.50;;;4.93;92.59
43161;BME280;40968;52.342;5.528;2024-01-25T10:03:36;102867.94;;;4.60;92.64
43161;BME280;40968;52.342;5.528;2024-01-25T10:06:07;102831.06;;;4.42;92.58
43161;BME280;40968;52.342;5.528;2024-01-25T10:08:33;102612.81;;;3.18;92.38
43161;BME280;40968;52.342;5.528;2024-01-25T10:11:00;102762.63;;;4.05;92.54
43161;BME280;40968;52.342;5.528;2024-01-25T10:13:27;102858.91;;;4.71;92.41
43161;BME280;40968;52.342;5.528;2024-01-25T10:15:54;102861.50;;;4.74;92.41
43161;BME280;40968;52.342;5.528;2024-01-25T10:18:22;102930.78;;;5.13;92.51
43161;BME280;40968;52.342;5.528;2024-01-25T10:20:48;102874.63;;;4.83;92.25
43161;BME280;40968;52.342;5.528;2024-01-25T10:23:16;102922.63;;;5.22;92.28
43161;BME280;40968;52.342;5.528;2024-01-25T10:25:43;102930.50;;;5.28;92.26
43161;BME280;40968;52.342;5.528;2024-01-25T10:28:10;102770.91;;;4.39;91.95
43161;BME280;40968;52.342;5.528;2024-01-25T10:30:38;102935.72;;;5.35;92.25
43161;BME280;40968;52.342;5.528;2024-01-25T10:33:05;102937.41;;;5.39;92.10
43161;BME280;40968;52.342;5.528;2024-01-25T10:35:32;102832.97;;;4.85;91.86
43161;BME280;40968;52.342;5.528;2024-01-25T10:37:59;102905.63;;;5.32;91.74
43161;BME280;40968;52.342;5.528;2024-01-25T10:40:28;102824.03;;;4.89;91.75
43161;BME280;40968;52.342;5.528;2024-01-25T10:42:55;102845.84;;;5.07;91.74
43161;BME280;40968;52.342;5.528;2024-01-25T10:45:21;102745.09;;;4.47;91.38
43161;BME280;40968;52.342;5.528;2024-01-25T10:47:48;102794.00;;;4.84;91.28
43161;BME280;40968;52.342;5.528;2024-01-25T10:50:15;102913.97;;;5.59;91.37
43161;BME280;40968;52.342;5.528;2024-01-25T10:52:42;102651.19;;;4.05;90.81
43161;BME280;40968;52.342;5.528;2024-01-25T10:55:09;102813.94;;;5.07;91.09
43161;BME280;40968;52.342;5.528;2024-01-25T10:57:41;102771.00;;;4.83;90.88
43161;BME280;40968;52.342;5.528;2024-01-25T11:00:10;102904.94;;;5.67;90.98
43161;BME280;40968;52.342;5.528;2024-01-25T11:02:38;102861.09;;;5.44;91.22
43161;BME280;40968;52.342;5.528;2024-01-25T11:05:08;102695.47;;;4.51;90.76
43161;BME280;40968;52.342;5.528;2024-01-25T11:07:41;102901.19;;;5.77;90.85
43161;BME280;40968;52.342;5.528;2024-01-25T11:10:12;102876.19;;;5.84;90.88
43161;BME280;40968;52.342;5.528;2024-01-25T11:12:48;102664.94;;;4.72;90.62
43161;BME280;40968;52.342;5.528;2024-01-25T11:15:18;102851.03;;;6.01;90.73
43161;BME280;40968;52.342;5.528;2024-01-25T11:17:50;102842.94;;;6.04;90.52
43161;BME280;40968;52.342;5.528;2024-01-25T11:20:20;102812.09;;;5.93;90.44
43161;BME280;40968;52.342;5.528;2024-01-25T11:22:47;102780.53;;;5.78;90.08
43161;BME280;40968;52.342;5.528;2024-01-25T11:25:19;102855.09;;;6.17;90.17
43161;BME280;40968;52.342;5.528;2024-01-25T11:27:48;102585.34;;;4.68;89.94
43161;BME280;40968;52.342;5.528;2024-01-25T11:30:18;102836.28;;;6.23;90.00
43161;BME280;40968;52.342;5.528;2024-01-25T11:32:46;102731.47;;;5.52;89.80
43161;BME280;40968;52.342;5.528;2024-01-25T11:35:14;102788.94;;;5.98;89.77
43161;BME280;40968;52.342;5.528;2024-01-25T11:37:42;102821.44;;;6.13;89.66
43161;BME280;40968;52.342;5.528;2024-01-25T11:40:12;102753.00;;;5.80;89.33
43161;BME280;40968;52.342;5.528;2024-01-25T11:42:39;102755.19;;;6.01;89.35
43161;BME280;40968;52.342;5.528;2024-01-25T11:45:10;102770.66;;;6.22;89.18
43161;BME280;40968;52.342;5.528;2024-01-25T11:47:38;102833.53;;;6.62;88.90
43161;BME280;40968;52.342;5.528;2024-01-25T11:50:06;102829.97;;;6.63;88.85
43161;BME280;40968;52.342;5.528;2024-01-25T11:52:34;102824.53;;;6.67;88.52
43161;BME280;40968;52.342;5.528;2024-01-25T11:55:02;102821.72;;;6.73;88.20
43161;BME280;40968;52.342;5.528;2024-01-25T11:57:29;102818.06;;;6.77;88.07
43161;BME280;40968;52.342;5.528;2024-01-25T11:59:57;102757.66;;;6.43;87.91
43161;BME280;40968;52.342;5.528;2024-01-25T12:02:25;102694.88;;;6.00;87.65
43161;BME280;40968;52.342;5.528;2024-01-25T12:04:52;102716.41;;;6.25;87.35
43161;BME280;40968;52.342;5.528;2024-01-25T12:07:21;102817.91;;;6.83;87.13
43161;BME280;40968;52.342;5.528;2024-01-25T12:09:57;102683.75;;;6.18;86.92
43161;BME280;40968;52.342;5.528;2024-01-25T12:12:24;102802.00;;;7.13;86.74
43161;BME280;40968;52.342;5.528;2024-01-25T12:14:50;102800.66;;;7.28;86.35
43161;BME280;40968;52.342;5.528;2024-01-25T12:17:18;102687.88;;;6.63;85.63
43161;BME280;40968;52.342;5.528;2024-01-25T12:19:46;102575.44;;;6.20;85.06
43161;BME280;40968;52.342;5.528;2024-01-25T12:22:19;102801.34;;;7.64;84.25
43161;BME280;40968;52.342;5.528;2024-01-25T12:24:46;102588.97;;;6.44;83.22
43161;BME280;40968;52.342;5.528;2024-01-25T12:27:14;102787.81;;;7.71;83.05
43161;BME280;40968;52.342;5.528;2024-01-25T12:29:41;102782.50;;;7.71;82.64
43161;BME280;40968;52.342;5.528;2024-01-25T12:32:08;102738.72;;;7.48;81.82
43161;BME280;40968;52.342;5.528;2024-01-25T12:34:35;102722.78;;;7.45;81.52
43161;BME280;40968;52.342;5.528;2024-01-25T12:37:03;102778.50;;;7.84;81.64
43161;BME280;40968;52.342;5.528;2024-01-25T12:39:30;102684.72;;;7.40;81.59
43161;BME280;40968;52.342;5.528;2024-01-25T12:41:57;102760.34;;;7.95;81.43
43161;BME280;40968;52.342;5.528;2024-01-25T12:44:24;102700.78;;;7.67;80.23
43161;BME280;40968;52.342;5.528;2024-01-25T12:46:51;102732.00;;;7.91;79.87
43161;BME280;40968;52.342;5.528;2024-01-25T12:49:18;102756.50;;;8.04;79.06
43161;BME280;40968;52.342;5.528;2024-01-25T12:51:47;102368.94;;;5.80;78.09
43161;BME280;40968;52.342;5.528;2024-01-25T12:54:15;102627.78;;;7.41;78.11
43161;BME280;40968;52.342;5.528;2024-01-25T12:56:41;102734.06;;;8.10;78.12
43161;BME280;40968;52.342;5.528;2024-01-25T12:59:08;102663.50;;;7.63;77.53